sensor_id;sensor_type;location;lat;lon;timestamp;P1;durP1;ratioP1;P2;durP2;ratioP2
60314;SDS011;46159;42.550;21.904;2023-03-08T00:01:31;60.22;;;36.88;;
60314;SDS011;46159;42.550;21.904;2023-03-08T00:03:57;57.05;;;35.42;;
60314;SDS011;46159;42.550;21.904;2023-03-08T00:06:23;54.92;;;36.13;;
60314;SDS011;46159;42.550;21.904;2023-03-08T00:08:53;58.42;;;36.72;;
60314;SDS011;46159;42.550;21.904;2023-03-08T00:11:19;55.30;;;33.97;;
60314;SDS011;46159;42.550;21.904;2023-03-08T00:13:45;48.47;;;32.00;;
60314;SDS011;46159;42.550;21.904;2023-03-08T00:16:11;49.85;;;32.90;;
60314;SDS011;46159;42.550;21.904;2023-03-08T00:18:38;51.13;;;31.80;;
60314;SDS011;46159;42.550;21.904;2023-03-08T00:21:05;52.65;;;32.13;;
60314;SDS011;46159;42.550;21.904;2023-03-08T00:23:32;50.35;;;31.85;;
60314;SDS011;46159;42.550;21.904;2023-03-08T00:25:59;50.60;;;33.08;;
60314;SDS011;46159;42.550;21.904;2023-03-08T00:28:25;50.13;;;31.85;;
60314;SDS011;46159;42.550;21.904;2023-03-08T00:30:58;54.75;;;33.42;;
60314;SDS011;46159;42.550;21.904;2023-03-08T00:33:25;51.58;;;31.98;;
60314;SDS011;46159;42.550;21.904;2023-03-08T00:35:55;65.25;;;33.97;;
60314;SDS011;46159;42.550;21.904;2023-03-08T00:38:21;56.70;;;32.47;;
60314;SDS011;46159;42.550;21.904;2023-03-08T00:40:47;56.92;;;32.85;;
60314;SDS011;46159;42.550;21.904;2023-03-08T00:43:13;64.45;;;33.45;;
60314;SDS011;46159;42.550;21.904;2023-03-08T00:45:39;58.38;;;35.13;;
60314;SDS011;46159;42.550;21.904;2023-03-08T00:48:05;58.67;;;35.53;;
60314;SDS011;46159;42.550;21.904;2023-03-08T00:50:31;53.53;;;33.70;;
60314;SDS011;46159;42.550;21.904;2023-03-08T00:52:57;56.33;;;34.55;;
60314;SDS011;46159;42.550;21.904;2023-03-08T00:55:23;63.70;;;38.33;;
60314;SDS011;46159;42.550;21.904;2023-03-08T00:57:49;59.15;;;36.40;;
60314;SDS011;46159;42.550;21.904;2023-03-08T01:00:16;66.95;;;41.10;;
60314;SDS011;46159;42.550;21.904;2023-03-08T01:02:42;73.25;;;40.55;;
60314;SDS011;46159;42.550;21.904;2023-03-08T01:05:08;69.20;;;40.22;;
60314;SDS011;46159;42.550;21.904;2023-03-08T01:07:34;63.33;;;38.33;;
60314;SDS011;46159;42.550;21.904;2023-03-08T01:10:00;81.65;;;51.40;;
60314;SDS011;46159;42.550;21.904;2023-03-08T01:12:30;91.47;;;59.15;;
60314;SDS011;46159;42.550;21.904;2023-03-08T01:14:56;97.85;;;59.88;;
60314;SDS011;46159;42.550;21.904;2023-03-08T01:17:22;120.05;;;78.88;;
60314;SDS011;46159;42.550;21.904;2023-03-08T01:19:48;93.93;;;60.55;;
60314;SDS011;46159;42.550;21.904;2023-03-08T01:22:14;87.32;;;53.97;;
60314;SDS011;46159;42.550;21.904;2023-03-08T01:24:44;88.68;;;56.95;;
60314;SDS011;46159;42.550;21.904;2023-03-08T01:27:10;83.88;;;51.42;;
60314;SDS011;46159;42.550;21.904;2023-03-08T01:29:36;75.65;;;47.30;;
60314;SDS011;46159;42.550;21.904;2023-03-08T01:32:03;89.95;;;52.17;;
60314;SDS011;46159;42.550;21.904;2023-03-08T01:34:29;80.20;;;50.05;;
60314;SDS011;46159;42.550;21.904;2023-03-08T01:36:55;82.70;;;50.75;;
60314;SDS011;46159;42.550;21.904;2023-03-08T01:39:21;81.57;;;50.47;;
60314;SDS011;46159;42.550;21.904;2023-03-08T01:41:47;77.43;;;51.83;;
60314;SDS011;46159;42.550;21.904;2023-03-08T01:44:16;74.53;;;47.22;;
60314;SDS011;46159;42.550;21.904;2023-03-08T01:46:42;127.03;;;78.05;;
60314;SDS011;46159;42.550;21.904;2023-03-08T01:49:10;153.15;;;92.97;;
60314;SDS011;46159;42.550;21.904;2023-03-08T01:52:21;177.30;;;104.43;;
60314;SDS011;46159;42.550;21.904;2023-03-08T01:54:29;129.98;;;81.40;;
60314;SDS011;46159;42.550;21.904;2023-03-08T01:56:58;107.10;;;68.18;;
60314;SDS011;46159;42.550;21.904;2023-03-08T01:59:24;70.78;;;46.03;;
60314;SDS011;46159;42.550;21.904;2023-03-08T02:01:51;65.00;;;40.40;;
60314;SDS011;46159;42.550;21.904;2023-03-08T02:04:17;98.40;;;59.08;;
60314;SDS011;46159;42.550;21.904;2023-03-08T02:06:43;79.38;;;51.10;;
60314;SDS011;46159;42.550;21.904;2023-03-08T02:09:09;70.65;;;45.40;;
60314;SDS011;46159;42.550;21.904;2023-03-08T02:11:36;85.90;;;51.15;;
60314;SDS011;46159;42.550;21.904;2023-03-08T02:14:03;56.28;;;36.95;;
60314;SDS011;46159;42.550;21.904;2023-03-08T02:16:29;53.42;;;31.95;;
60314;SDS011;46159;42.550;21.904;2023-03-08T02:18:57;41.95;;;26.98;;
60314;SDS011;46159;42.550;21.904;2023-03-08T02:21:24;43.22;;;28.13;;
60314;SDS011;46159;42.550;21.904;2023-03-08T02:23:50;47.40;;;30.60;;
60314;SDS011;46159;42.550;21.904;2023-03-08T02:26:17;43.85;;;29.17;;
60314;SDS011;46159;42.550;21.904;2023-03-08T02:28:43;45.72;;;29.50;;
60314;SDS011;46159;42.550;21.904;2023-03-08T02:31:09;45.67;;;30.42;;
60314;SDS011;46159;42.550;21.904;2023-03-08T02:33:36;40.83;;;27.15;;
60314;SDS011;46159;42.550;21.904;2023-03-08T02:36:02;40.92;;;26.40;;
60314;SDS011;46159;42.550;21.904;2023-03-08T02:38:28;47.03;;;28.42;;
60314;SDS011;46159;42.550;21.904;2023-03-08T02:40:54;64.05;;;39.95;;
60314;SDS011;46159;42.550;21.904;2023-03-08T02:43:21;96.30;;;55.72;;
60314;SDS011;46159;42.550;21.904;2023-03-08T02:45:47;96.10;;;55.33;;
60314;SDS011;46159;42.550;21.904;2023-03-08T02:48:13;84.13;;;49.58;;
60314;SDS011;46159;42.550;21.904;2023-03-08T02:50:40;80.68;;;48.53;;
60314;SDS011;46159;42.550;21.904;2023-03-08T02:53:06;66.72;;;40.85;;
60314;SDS011;46159;42.550;21.904;2023-03-08T02:55:32;57.80;;;36.55;;
60314;SDS011;46159;42.550;21.904;2023-03-08T02:58:00;75.32;;;45.45;;
60314;SDS011;46159;42.550;21.904;2023-03-08T03:00:26;174.60;;;98.35;;
60314;SDS011;46159;42.550;21.904;2023-03-08T03:02:52;74.53;;;44.40;;
60314;SDS011;46159;42.550;21.904;2023-03-08T03:05:18;54.78;;;36.80;;
60314;SDS011;46159;42.550;21.904;2023-03-08T03:07:44;46.85;;;29.80;;
60314;SDS011;46159;42.550;21.904;2023-03-08T03:10:11;73.15;;;44.67;;
60314;SDS011;46159;42.550;21.904;2023-03-08T03:12:37;78.40;;;46.83;;
60314;SDS011;46159;42.550;21.904;2023-03-08T03:15:04;24.83;;;14.95;;
60314;SDS011;46159;42.550;21.904;2023-03-08T03:17:31;23.42;;;14.05;;
60314;SDS011;46159;42.550;21.904;2023-03-08T03:19:57;23.90;;;15.38;;
60314;SDS011;46159;42.550;21.904;2023-03-08T03:22:23;53.40;;;31.42;;
60314;SDS011;46159;42.550;21.904;2023-03-08T03:24:49;58.00;;;34.72;;
60314;SDS011;46159;42.550;21.904;2023-03-08T03:27:16;28.55;;;18.33;;
60314;SDS011;46159;42.550;21.904;2023-03-08T03:29:42;28.55;;;16.95;;
60314;SDS011;46159;42.550;21.904;2023-03-08T03:32:08;33.03;;;19.67;;
60314;SDS011;46159;42.550;21.904;2023-03-08T03:34:34;33.53;;;23.92;;
60314;SDS011;46159;42.550;21.904;2023-03-08T03:37:00;43.05;;;28.70;;
60314;SDS011;46159;42.550;21.904;2023-03-08T03:39:26;41.88;;;29.08;;
60314;SDS011;46159;42.550;21.904;2023-03-08T03:41:58;24.58;;;16.80;;
60314;SDS011;46159;42.550;21.904;2023-03-08T03:44:24;25.40;;;18.20;;
60314;SDS011;46159;42.550;21.904;2023-03-08T03:46:50;26.25;;;17.05;;
60314;SDS011;46159;42.550;21.904;2023-03-08T03:49:17;22.83;;;16.42;;
60314;SDS011;46159;42.550;21.904;2023-03-08T03:51:43;22.27;;;15.52;;
60314;SDS011;46159;42.550;21.904;2023-03-08T03:54:09;22.98;;;14.10;;
60314;SDS011;46159;42.550;21.904;2023-03-08T03:56:35;22.58;;;12.60;;
60314;SDS011;46159;42.550;21.904;2023-03-08T03:59:01;19.92;;;12.35;;
60314;SDS011;46159;42.550;21.904;2023-03-08T04:01:28;21.52;;;12.88;;
60314;SDS011;46159;42.550;21.904;2023-03-08T04:03:54;19.52;;;12.10;;
60314;SDS011;46159;42.550;21.904;2023-03-08T04:06:22;21.88;;;13.20;;
60314;SDS011;46159;42.550;21.904;2023-03-08T04:08:48;26.45;;;14.25;;
60314;SDS011;46159;42.550;21.904;2023-03-08T04:11:17;25.27;;;14.85;;
60314;SDS011;46159;42.550;21.904;2023-03-08T04:13:43;30.83;;;14.88;;
60314;SDS011;46159;42.550;21.904;2023-03-08T04:16:14;25.58;;;15.40;;
60314;SDS011;46159;42.550;21.904;2023-03-08T04:18:40;22.60;;;14.30;;
60314;SDS011;46159;42.550;21.904;2023-03-08T04:21:08;25.55;;;14.82;;
60314;SDS011;46159;42.550;21.904;2023-03-08T04:23:34;21.38;;;14.73;;
60314;SDS011;46159;42.550;21.904;2023-03-08T04:26:01;25.73;;;14.30;;
60314;SDS011;46159;42.550;21.904;2023-03-08T04:28:27;21.80;;;13.55;;
60314;SDS011;46159;42.550;21.904;2023-03-08T04:30:53;27.88;;;14.13;;
60314;SDS011;46159;42.550;21.904;2023-03-08T04:33:19;22.80;;;15.07;;
60314;SDS011;46159;42.550;21.904;2023-03-08T04:35:45;35.38;;;17.65;;
60314;SDS011;46159;42.550;21.904;2023-03-08T04:38:11;29.05;;;17.15;;
60314;SDS011;46159;42.550;21.904;2023-03-08T04:40:38;42.00;;;23.23;;
60314;SDS011;46159;42.550;21.904;2023-03-08T04:43:23;38.78;;;23.70;;
60314;SDS011;46159;42.550;21.904;2023-03-08T04:45:49;43.85;;;24.75;;
60314;SDS011;46159;42.550;21.904;2023-03-08T04:48:15;44.10;;;25.33;;
60314;SDS011;46159;42.550;21.904;2023-03-08T04:50:41;53.42;;;28.73;;
60314;SDS011;46159;42.550;21.904;2023-03-08T04:53:07;55.55;;;28.23;;
60314;SDS011;46159;42.550;21.904;2023-03-08T04:55:36;46.67;;;27.05;;
60314;SDS011;46159;42.550;21.904;2023-03-08T04:58:03;48.63;;;30.48;;
60314;SDS011;46159;42.550;21.904;2023-03-08T05:00:29;48.80;;;31.88;;
60314;SDS011;46159;42.550;21.904;2023-03-08T05:02:55;54.67;;;31.45;;
60314;SDS011;46159;42.550;21.904;2023-03-08T05:05:21;57.45;;;32.55;;
60314;SDS011;46159;42.550;21.904;2023-03-08T05:07:47;48.15;;;26.23;;
60314;SDS011;46159;42.550;21.904;2023-03-08T05:10:13;26.45;;;16.60;;
60314;SDS011;46159;42.550;21.904;2023-03-08T05:12:39;26.00;;;15.02;;
60314;SDS011;46159;42.550;21.904;2023-03-08T05:15:05;25.92;;;17.27;;
60314;SDS011;46159;42.550;21.904;2023-03-08T05:17:31;31.23;;;20.10;;
60314;SDS011;46159;42.550;21.904;2023-03-08T05:19:57;33.47;;;22.23;;
60314;SDS011;46159;42.550;21.904;2023-03-08T05:22:23;38.47;;;23.42;;
60314;SDS011;46159;42.550;21.904;2023-03-08T05:24:49;37.13;;;22.42;;
60314;SDS011;46159;42.550;21.904;2023-03-08T05:27:16;36.15;;;21.48;;
60314;SDS011;46159;42.550;21.904;2023-03-08T05:29:42;31.02;;;22.23;;
60314;SDS011;46159;42.550;21.904;2023-03-08T05:32:12;32.78;;;21.90;;
60314;SDS011;46159;42.550;21.904;2023-03-08T05:34:38;32.28;;;20.33;;
60314;SDS011;46159;42.550;21.904;2023-03-08T05:37:04;29.27;;;18.05;;
60314;SDS011;46159;42.550;21.904;2023-03-08T05:39:30;23.52;;;15.93;;
60314;SDS011;46159;42.550;21.904;2023-03-08T05:41:56;26.38;;;17.73;;
60314;SDS011;46159;42.550;21.904;2023-03-08T05:44:22;28.85;;;17.92;;
60314;SDS011;46159;42.550;21.904;2023-03-08T05:46:51;25.55;;;16.58;;
60314;SDS011;46159;42.550;21.904;2023-03-08T05:49:18;25.10;;;16.98;;
60314;SDS011;46159;42.550;21.904;2023-03-08T05:51:44;27.35;;;17.55;;
60314;SDS011;46159;42.550;21.904;2023-03-08T05:54:10;61.75;;;36.80;;
60314;SDS011;46159;42.550;21.904;2023-03-08T05:56:36;95.72;;;56.13;;
60314;SDS011;46159;42.550;21.904;2023-03-08T05:59:02;43.33;;;25.92;;
60314;SDS011;46159;42.550;21.904;2023-03-08T06:01:31;65.82;;;31.08;;
60314;SDS011;46159;42.550;21.904;2023-03-08T06:03:57;66.57;;;39.45;;
60314;SDS011;46159;42.550;21.904;2023-03-08T06:06:24;76.45;;;45.25;;
60314;SDS011;46159;42.550;21.904;2023-03-08T06:08:50;61.03;;;37.40;;
60314;SDS011;46159;42.550;21.904;2023-03-08T06:11:17;92.97;;;55.72;;
60314;SDS011;46159;42.550;21.904;2023-03-08T06:13:43;103.68;;;57.05;;
60314;SDS011;46159;42.550;21.904;2023-03-08T06:16:09;97.03;;;59.78;;
60314;SDS011;46159;42.550;21.904;2023-03-08T06:18:36;70.07;;;47.22;;
60314;SDS011;46159;42.550;21.904;2023-03-08T06:23:32;93.20;;;58.10;;
60314;SDS011;46159;42.550;21.904;2023-03-08T06:25:59;64.97;;;41.00;;
60314;SDS011;46159;42.550;21.904;2023-03-08T06:28:25;47.58;;;34.22;;
60314;SDS011;46159;42.550;21.904;2023-03-08T06:30:52;61.88;;;43.70;;
60314;SDS011;46159;42.550;21.904;2023-03-08T06:33:18;74.28;;;49.42;;
60314;SDS011;46159;42.550;21.904;2023-03-08T06:35:58;79.50;;;50.88;;
60314;SDS011;46159;42.550;21.904;2023-03-08T06:38:24;88.38;;;59.45;;
60314;SDS011;46159;42.550;21.904;2023-03-08T06:40:51;80.75;;;54.08;;
60314;SDS011;46159;42.550;21.904;2023-03-08T06:43:17;48.30;;;31.23;;
60314;SDS011;46159;42.550;21.904;2023-03-08T06:45:43;42.78;;;29.17;;
60314;SDS011;46159;42.550;21.904;2023-03-08T06:48:09;47.63;;;29.98;;
60314;SDS011;46159;42.550;21.904;2023-03-08T06:50:35;44.60;;;29.67;;
60314;SDS011;46159;42.550;21.904;2023-03-08T06:53:01;43.10;;;28.20;;
60314;SDS011;46159;42.550;21.904;2023-03-08T06:55:27;30.70;;;20.25;;
60314;SDS011;46159;42.550;21.904;2023-03-08T06:57:53;30.45;;;18.17;;
60314;SDS011;46159;42.550;21.904;2023-03-08T07:00:20;24.50;;;18.05;;
60314;SDS011;46159;42.550;21.904;2023-03-08T07:02:46;42.95;;;24.88;;
60314;SDS011;46159;42.550;21.904;2023-03-08T07:05:13;32.67;;;19.48;;
60314;SDS011;46159;42.550;21.904;2023-03-08T07:07:40;29.25;;;18.20;;
60314;SDS011;46159;42.550;21.904;2023-03-08T07:10:06;31.70;;;18.92;;
60314;SDS011;46159;42.550;21.904;2023-03-08T07:12:32;34.45;;;21.75;;
60314;SDS011;46159;42.550;21.904;2023-03-08T07:15:00;40.63;;;27.23;;
60314;SDS011;46159;42.550;21.904;2023-03-08T07:17:26;56.85;;;31.88;;
60314;SDS011;46159;42.550;21.904;2023-03-08T07:19:52;46.75;;;29.77;;
60314;SDS011;46159;42.550;21.904;2023-03-08T07:22:18;50.90;;;32.75;;
60314;SDS011;46159;42.550;21.904;2023-03-08T07:24:46;60.67;;;38.42;;
60314;SDS011;46159;42.550;21.904;2023-03-08T07:27:12;77.65;;;48.85;;
60314;SDS011;46159;42.550;21.904;2023-03-08T07:29:38;49.72;;;31.30;;
60314;SDS011;46159;42.550;21.904;2023-03-08T07:32:04;51.95;;;30.63;;
60314;SDS011;46159;42.550;21.904;2023-03-08T07:34:30;52.03;;;30.77;;
60314;SDS011;46159;42.550;21.904;2023-03-08T07:36:56;46.70;;;24.98;;
60314;SDS011;46159;42.550;21.904;2023-03-08T07:39:22;55.45;;;29.63;;
60314;SDS011;46159;42.550;21.904;2023-03-08T07:41:48;62.85;;;31.08;;
60314;SDS011;46159;42.550;21.904;2023-03-08T07:44:14;72.75;;;39.65;;
60314;SDS011;46159;42.550;21.904;2023-03-08T07:46:41;168.38;;;74.68;;
60314;SDS011;46159;42.550;21.904;2023-03-08T07:49:07;89.47;;;49.95;;
60314;SDS011;46159;42.550;21.904;2023-03-08T07:51:35;87.78;;;53.13;;
60314;SDS011;46159;42.550;21.904;2023-03-08T07:54:01;89.78;;;47.80;;
60314;SDS011;46159;42.550;21.904;2023-03-08T07:56:27;88.78;;;53.90;;
60314;SDS011;46159;42.550;21.904;2023-03-08T07:58:56;99.95;;;60.08;;
60314;SDS011;46159;42.550;21.904;2023-03-08T08:01:22;87.18;;;52.08;;
60314;SDS011;46159;42.550;21.904;2023-03-08T08:03:49;115.47;;;67.07;;
60314;SDS011;46159;42.550;21.904;2023-03-08T08:06:15;126.40;;;74.03;;
60314;SDS011;46159;42.550;21.904;2023-03-08T08:08:41;120.90;;;76.47;;
60314;SDS011;46159;42.550;21.904;2023-03-08T08:11:11;105.07;;;66.97;;
60314;SDS011;46159;42.550;21.904;2023-03-08T08:13:38;125.47;;;74.60;;
60314;SDS011;46159;42.550;21.904;2023-03-08T08:16:04;130.43;;;74.35;;
60314;SDS011;46159;42.550;21.904;2023-03-08T08:18:34;143.77;;;92.30;;
60314;SDS011;46159;42.550;21.904;2023-03-08T08:21:07;156.20;;;98.78;;
60314;SDS011;46159;42.550;21.904;2023-03-08T08:23:34;160.77;;;105.53;;
60314;SDS011;46159;42.550;21.904;2023-03-08T08:26:04;185.40;;;119.47;;
60314;SDS011;46159;42.550;21.904;2023-03-08T08:28:30;203.95;;;133.35;;
60314;SDS011;46159;42.550;21.904;2023-03-08T08:30:57;189.88;;;134.18;;
60314;SDS011;46159;42.550;21.904;2023-03-08T08:33:23;222.65;;;148.55;;
60314;SDS011;46159;42.550;21.904;2023-03-08T08:35:49;209.50;;;145.77;;
60314;SDS011;46159;42.550;21.904;2023-03-08T08:38:15;214.70;;;145.30;;
60314;SDS011;46159;42.550;21.904;2023-03-08T08:40:41;196.93;;;137.40;;
60314;SDS011;46159;42.550;21.904;2023-03-08T08:43:07;179.40;;;127.32;;
60314;SDS011;46159;42.550;21.904;2023-03-08T08:45:33;175.25;;;116.53;;
60314;SDS011;46159;42.550;21.904;2023-03-08T08:48:00;164.90;;;111.32;;
60314;SDS011;46159;42.550;21.904;2023-03-08T08:50:26;141.52;;;98.97;;
60314;SDS011;46159;42.550;21.904;2023-03-08T08:52:52;137.75;;;97.90;;
60314;SDS011;46159;42.550;21.904;2023-03-08T08:55:18;145.38;;;101.05;;
60314;SDS011;46159;42.550;21.904;2023-03-08T08:57:44;139.05;;;89.28;;
60314;SDS011;46159;42.550;21.904;2023-03-08T09:00:10;128.02;;;81.22;;
60314;SDS011;46159;42.550;21.904;2023-03-08T09:02:37;116.50;;;84.40;;
60314;SDS011;46159;42.550;21.904;2023-03-08T09:05:03;124.82;;;85.78;;
60314;SDS011;46159;42.550;21.904;2023-03-08T09:07:29;124.20;;;85.95;;
60314;SDS011;46159;42.550;21.904;2023-03-08T09:09:55;113.57;;;77.22;;
60314;SDS011;46159;42.550;21.904;2023-03-08T09:12:22;105.00;;;74.53;;
60314;SDS011;46159;42.550;21.904;2023-03-08T09:14:48;126.50;;;77.50;;
60314;SDS011;46159;42.550;21.904;2023-03-08T09:17:14;125.57;;;84.97;;
60314;SDS011;46159;42.550;21.904;2023-03-08T09:19:40;189.95;;;116.43;;
60314;SDS011;46159;42.550;21.904;2023-03-08T09:22:06;148.55;;;98.25;;
60314;SDS011;46159;42.550;21.904;2023-03-08T09:24:33;126.65;;;89.80;;
60314;SDS011;46159;42.550;21.904;2023-03-08T09:26:59;137.70;;;92.28;;
60314;SDS011;46159;42.550;21.904;2023-03-08T09:29:25;117.57;;;83.75;;
60314;SDS011;46159;42.550;21.904;2023-03-08T09:31:51;149.73;;;106.00;;
60314;SDS011;46159;42.550;21.904;2023-03-08T09:34:17;134.60;;;88.72;;
60314;SDS011;46159;42.550;21.904;2023-03-08T09:36:43;135.20;;;93.72;;
60314;SDS011;46159;42.550;21.904;2023-03-08T09:39:10;125.32;;;90.88;;
60314;SDS011;46159;42.550;21.904;2023-03-08T09:44:15;128.07;;;86.43;;
60314;SDS011;46159;42.550;21.904;2023-03-08T09:46:53;121.22;;;85.32;;
60314;SDS011;46159;42.550;21.904;2023-03-08T09:49:21;136.20;;;86.90;;
60314;SDS011;46159;42.550;21.904;2023-03-08T09:51:51;131.30;;;91.30;;
60314;SDS011;46159;42.550;21.904;2023-03-08T09:54:19;149.35;;;99.97;;
60314;SDS011;46159;42.550;21.904;2023-03-08T09:56:47;105.55;;;75.95;;
60314;SDS011;46159;42.550;21.904;2023-03-08T09:59:33;118.07;;;74.00;;
60314;SDS011;46159;42.550;21.904;2023-03-08T10:04:56;110.97;;;75.63;;
60314;SDS011;46159;42.550;21.904;2023-03-08T10:15:16;191.27;;;123.53;;
60314;SDS011;46159;42.550;21.904;2023-03-08T10:17:51;158.82;;;107.13;;
60314;SDS011;46159;42.550;21.904;2023-03-08T10:20:19;148.25;;;98.60;;
60314;SDS011;46159;42.550;21.904;2023-03-08T10:22:48;139.75;;;97.75;;
60314;SDS011;46159;42.550;21.904;2023-03-08T10:27:43;118.53;;;90.80;;
60314;SDS011;46159;42.550;21.904;2023-03-08T10:30:13;125.10;;;84.30;;
60314;SDS011;46159;42.550;21.904;2023-03-08T10:32:41;107.82;;;80.03;;
60314;SDS011;46159;42.550;21.904;2023-03-08T10:35:07;104.55;;;78.90;;
60314;SDS011;46159;42.550;21.904;2023-03-08T10:37:33;131.68;;;79.80;;
60314;SDS011;46159;42.550;21.904;2023-03-08T10:40:01;116.70;;;83.18;;
60314;SDS011;46159;42.550;21.904;2023-03-08T10:42:29;112.70;;;80.68;;
60314;SDS011;46159;42.550;21.904;2023-03-08T10:44:58;112.65;;;82.43;;
60314;SDS011;46159;42.550;21.904;2023-03-08T10:47:34;114.45;;;88.45;;
60314;SDS011;46159;42.550;21.904;2023-03-08T10:53:17;111.35;;;78.40;;
60314;SDS011;46159;42.550;21.904;2023-03-08T10:55:45;149.25;;;86.63;;
60314;SDS011;46159;42.550;21.904;2023-03-08T11:00:56;81.68;;;57.83;;
60314;SDS011;46159;42.550;21.904;2023-03-08T11:03:24;68.18;;;45.58;;
60314;SDS011;46159;42.550;21.904;2023-03-08T11:05:55;58.53;;;42.33;;
60314;SDS011;46159;42.550;21.904;2023-03-08T11:08:23;64.18;;;40.97;;
60314;SDS011;46159;42.550;21.904;2023-03-08T11:11:09;41.20;;;27.48;;
60314;SDS011;46159;42.550;21.904;2023-03-08T11:13:37;35.83;;;18.67;;
60314;SDS011;46159;42.550;21.904;2023-03-08T11:18:56;35.58;;;18.60;;
60314;SDS011;46159;42.550;21.904;2023-03-08T11:24:22;22.30;;;13.43;;
60314;SDS011;46159;42.550;21.904;2023-03-08T11:39:25;18.08;;;8.73;;
60314;SDS011;46159;42.550;21.904;2023-03-08T11:41:55;22.02;;;10.77;;
60314;SDS011;46159;42.550;21.904;2023-03-08T11:47:06;23.58;;;10.10;;
60314;SDS011;46159;42.550;21.904;2023-03-08T11:52:09;17.45;;;8.88;;
60314;SDS011;46159;42.550;21.904;2023-03-08T11:57:19;42.95;;;16.30;;
60314;SDS011;46159;42.550;21.904;2023-03-08T11:59:48;22.10;;;7.82;;
60314;SDS011;46159;42.550;21.904;2023-03-08T12:07:45;20.35;;;8.43;;
60314;SDS011;46159;42.550;21.904;2023-03-08T12:10:20;12.40;;;5.03;;
60314;SDS011;46159;42.550;21.904;2023-03-08T12:13:32;17.85;;;7.18;;
60314;SDS011;46159;42.550;21.904;2023-03-08T12:18:02;20.55;;;10.05;;
60314;SDS011;46159;42.550;21.904;2023-03-08T12:20:30;14.25;;;6.78;;
60314;SDS011;46159;42.550;21.904;2023-03-08T12:23:01;37.40;;;29.52;;
60314;SDS011;46159;42.550;21.904;2023-03-08T12:25:29;17.73;;;7.15;;
60314;SDS011;46159;42.550;21.904;2023-03-08T12:28:04;27.88;;;10.30;;
60314;SDS011;46159;42.550;21.904;2023-03-08T12:33:33;23.55;;;14.43;;
60314;SDS011;46159;42.550;21.904;2023-03-08T12:36:03;35.85;;;17.67;;
60314;SDS011;46159;42.550;21.904;2023-03-08T12:38:34;24.20;;;9.10;;
60314;SDS011;46159;42.550;21.904;2023-03-08T12:41:01;20.95;;;9.00;;
60314;SDS011;46159;42.550;21.904;2023-03-08T12:43:31;43.38;;;11.32;;
60314;SDS011;46159;42.550;21.904;2023-03-08T12:55:57;29.52;;;9.27;;
60314;SDS011;46159;42.550;21.904;2023-03-08T12:58:24;15.00;;;6.13;;
60314;SDS011;46159;42.550;21.904;2023-03-08T13:01:02;16.27;;;5.95;;
60314;SDS011;46159;42.550;21.904;2023-03-08T13:03:34;14.77;;;5.13;;
60314;SDS011;46159;42.550;21.904;2023-03-08T13:06:12;19.58;;;6.50;;
60314;SDS011;46159;42.550;21.904;2023-03-08T13:08:39;19.08;;;13.02;;
60314;SDS011;46159;42.550;21.904;2023-03-08T13:11:13;26.50;;;16.02;;
60314;SDS011;46159;42.550;21.904;2023-03-08T13:18:59;15.73;;;8.35;;
60314;SDS011;46159;42.550;21.904;2023-03-08T13:21:28;25.77;;;16.23;;
60314;SDS011;46159;42.550;21.904;2023-03-08T13:29:09;21.95;;;11.48;;
60314;SDS011;46159;42.550;21.904;2023-03-08T13:31:36;24.58;;;12.48;;
60314;SDS011;46159;42.550;21.904;2023-03-08T13:34:03;17.88;;;8.50;;
60314;SDS011;46159;42.550;21.904;2023-03-08T13:36:30;30.13;;;6.50;;
60314;SDS011;46159;42.550;21.904;2023-03-08T13:39:01;18.50;;;6.20;;
60314;SDS011;46159;42.550;21.904;2023-03-08T13:44:01;15.35;;;8.20;;
60314;SDS011;46159;42.550;21.904;2023-03-08T13:46:27;13.52;;;5.90;;
60314;SDS011;46159;42.550;21.904;2023-03-08T13:48:53;35.08;;;7.82;;
60314;SDS011;46159;42.550;21.904;2023-03-08T13:51:20;17.83;;;8.98;;
60314;SDS011;46159;42.550;21.904;2023-03-08T13:53:47;13.13;;;6.45;;
60314;SDS011;46159;42.550;21.904;2023-03-08T13:56:22;34.78;;;8.63;;
60314;SDS011;46159;42.550;21.904;2023-03-08T13:58:48;20.77;;;8.20;;
60314;SDS011;46159;42.550;21.904;2023-03-08T14:01:18;18.75;;;7.57;;
60314;SDS011;46159;42.550;21.904;2023-03-08T14:03:46;31.63;;;8.23;;
60314;SDS011;46159;42.550;21.904;2023-03-08T14:06:16;23.42;;;10.23;;
60314;SDS011;46159;42.550;21.904;2023-03-08T14:08:44;17.83;;;9.40;;
60314;SDS011;46159;42.550;21.904;2023-03-08T14:11:13;44.65;;;8.88;;
60314;SDS011;46159;42.550;21.904;2023-03-08T14:13:43;34.00;;;7.88;;
60314;SDS011;46159;42.550;21.904;2023-03-08T14:16:21;21.05;;;12.45;;
60314;SDS011;46159;42.550;21.904;2023-03-08T14:18:47;20.45;;;8.07;;
60314;SDS011;46159;42.550;21.904;2023-03-08T14:23:40;24.80;;;9.80;;
60314;SDS011;46159;42.550;21.904;2023-03-08T14:31:36;21.08;;;7.53;;
60314;SDS011;46159;42.550;21.904;2023-03-08T14:34:14;21.15;;;10.13;;
60314;SDS011;46159;42.550;21.904;2023-03-08T14:36:45;16.42;;;8.75;;
60314;SDS011;46159;42.550;21.904;2023-03-08T14:39:17;38.17;;;17.20;;
60314;SDS011;46159;42.550;21.904;2023-03-08T14:41:43;33.50;;;13.35;;
60314;SDS011;46159;42.550;21.904;2023-03-08T14:44:13;33.47;;;19.25;;
60314;SDS011;46159;42.550;21.904;2023-03-08T14:46:39;27.33;;;17.45;;
60314;SDS011;46159;42.550;21.904;2023-03-08T14:49:17;34.30;;;17.50;;
60314;SDS011;46159;42.550;21.904;2023-03-08T14:51:46;26.90;;;15.43;;
60314;SDS011;46159;42.550;21.904;2023-03-08T14:54:28;21.90;;;9.88;;
60314;SDS011;46159;42.550;21.904;2023-03-08T14:56:55;32.63;;;18.02;;
60314;SDS011;46159;42.550;21.904;2023-03-08T14:59:22;45.03;;;18.27;;
60314;SDS011;46159;42.550;21.904;2023-03-08T15:01:49;28.92;;;16.33;;
60314;SDS011;46159;42.550;21.904;2023-03-08T15:04:20;29.85;;;16.17;;
60314;SDS011;46159;42.550;21.904;2023-03-08T15:06:47;33.72;;;19.50;;
60314;SDS011;46159;42.550;21.904;2023-03-08T15:09:15;43.97;;;19.02;;
60314;SDS011;46159;42.550;21.904;2023-03-08T15:11:42;45.13;;;27.58;;
60314;SDS011;46159;42.550;21.904;2023-03-08T15:14:10;42.40;;;22.60;;
60314;SDS011;46159;42.550;21.904;2023-03-08T15:16:37;41.45;;;23.83;;
60314;SDS011;46159;42.550;21.904;2023-03-08T15:19:03;71.40;;;24.80;;
60314;SDS011;46159;42.550;21.904;2023-03-08T15:21:29;39.60;;;26.20;;
60314;SDS011;46159;42.550;21.904;2023-03-08T15:23:55;35.95;;;20.60;;
60314;SDS011;46159;42.550;21.904;2023-03-08T15:26:23;44.13;;;20.48;;
60314;SDS011;46159;42.550;21.904;2023-03-08T15:28:50;43.83;;;23.88;;
60314;SDS011;46159;42.550;21.904;2023-03-08T15:31:16;40.42;;;25.55;;
60314;SDS011;46159;42.550;21.904;2023-03-08T15:33:42;36.95;;;25.20;;
60314;SDS011;46159;42.550;21.904;2023-03-08T15:36:11;38.90;;;26.33;;
60314;SDS011;46159;42.550;21.904;2023-03-08T15:38:38;35.10;;;24.30;;
60314;SDS011;46159;42.550;21.904;2023-03-08T15:41:04;28.08;;;18.00;;